Air Navigation Services of Czech Republic
Airport: LKPD Updated:  04.06.2020 10:30:25  UTC
 METAR LKPD 04.06. 10:30 ...
METAR LKPD 041030Z 10005KT 070V140 9999 FEW038 BKN220 22/12 Q0997 NOSIG RMK BLU BLU=
 TAF LKPD 04.06. 05:00 ...
TAF LKPD 040500Z 0406/0506 VRB02KT CAVOK      BECMG 0407/0409 11008KT SCT025      BECMG 0410/0413 CAVOK      TEMPO 0410/0420 17008KT 7000 SHRA BKN040TCU      PROB40 TEMPO 0411/0420 21014G24KT 4000 TSRA BKN030CB      BECMG 0423/0501 27010KT 7000 RA SCT020 OVC030=